Данни от 14.10.2019 г. 04:24:00

Температура вътрешна: 22.1 °C
Температура външна: 13.3 °C
Атмосферно налягане: 1005.0 hPa
Атмосферно налягане на морско равнище: 1023.0 hPa
Влажност: 56.3 %



История от последните 24 часа

Дата и часTin [°C]P [hPa]Psl [hPa]H [%]Tout [°C]
   14.10.2019 г. 04:00:00      22.1      1004.7      1022.7      56.5      14.8   
   14.10.2019 г. 03:30:00      22.1      1004.8      1022.8      56.2      14.5   
   14.10.2019 г. 03:00:00      22.1      1004.9      1022.8      55.9      14.0   
   14.10.2019 г. 02:30:00      22.1      1005.1      1023.0      56.3      14.9   
   14.10.2019 г. 02:00:00      22.1      1005.2      1023.1      56.3      14.5   
   14.10.2019 г. 01:30:00      22.1      1005.1      1023.1      56.5      14.8   
   14.10.2019 г. 01:00:00      22.1      1005.1      1023.0      56.9      15.1   
   14.10.2019 г. 00:30:00      22.2      1005.1      1023.1      57.1      16.4   
   14.10.2019 г. 00:00:00      22.2      1005.2      1023.2      57.3      17.1   
   13.10.2019 г. 23:30:59      22.1      1005.2      1023.1      56.9      17.4   
   13.10.2019 г. 23:00:00      22.1      1005.3      1023.2      56.8      16.4   
   13.10.2019 г. 22:30:59      21.8      1005.2      1023.2      57.3      17.5   
   13.10.2019 г. 22:00:00      21.8      1005.2      1023.1      57.9      16.8   
   13.10.2019 г. 21:30:59      21.8      1005.1      1023.1      57.2      16.4   
   13.10.2019 г. 21:00:00      21.8      1005.1      1023.0      56.5      16.8   
   13.10.2019 г. 20:30:00      21.9      1005.1      1023.0      55.4      17.3   
   13.10.2019 г. 20:00:00      21.9      1004.9      1022.8      55.9      17.6   
   13.10.2019 г. 19:30:00      21.9      1004.8      1022.8      55.7      18.4   
   13.10.2019 г. 19:00:00      21.9      1004.5      1022.4      55.5      19.9   
   13.10.2019 г. 18:30:00      21.8      1004.2      1022.2      55.0      22.5   
   13.10.2019 г. 18:00:00      21.8      1004.0      1021.9      54.7      27.0   
   13.10.2019 г. 17:30:00      21.8      1004.0      1021.9      54.8      29.8   
   13.10.2019 г. 17:00:00      21.8      1004.1      1022.0      54.8      30.9   
   13.10.2019 г. 16:30:00      21.9      1004.2      1022.1      54.2      29.7   
   13.10.2019 г. 16:00:00      22.0      1004.2      1022.2      54.7      28.5   
   13.10.2019 г. 15:30:00      22.1      1004.3      1022.3      54.5      27.3   
   13.10.2019 г. 15:00:00      22.0      1004.6      1022.6      54.6      26.1   
   13.10.2019 г. 14:30:00      21.8      1004.9      1022.8      54.8      24.9   
   13.10.2019 г. 14:00:00      21.6      1005.2      1023.2      54.9      23.7   
   13.10.2019 г. 13:30:00      21.5      1005.7      1023.6      54.8      22.5   
   13.10.2019 г. 13:00:00      21.5      1006.1      1024.0      54.3      21.3   
   13.10.2019 г. 12:30:00      21.5      1006.4      1024.4      54.5      20.2   
   13.10.2019 г. 12:00:00      21.4      1006.4      1024.4      53.6      19.0   
   13.10.2019 г. 11:30:00      21.4      1006.6      1024.6      53.8      18.1   
   13.10.2019 г. 11:00:00      21.3      1006.6      1024.6      53.8      17.3   
   13.10.2019 г. 10:30:00      21.2      1006.7      1024.6      53.5      16.3   
   13.10.2019 г. 10:00:00      21.2      1006.7      1024.6      53.8      15.4   
   13.10.2019 г. 09:30:00      21.2      1006.5      1024.4      54.0      14.4   
   13.10.2019 г. 09:00:59      21.3      1006.3      1024.2      54.2      13.5   
   13.10.2019 г. 09:00:00      21.2      1006.2      1024.2      53.9      13.5   
   13.10.2019 г. 08:30:00      21.4      1006.2      1024.1      54.2      12.9   
   13.10.2019 г. 07:30:00      21.4      1005.9      1023.9      54.5      12.9   
   13.10.2019 г. 06:30:00      21.8      1006.0      1024.0      53.6      12.4   
   13.10.2019 г. 06:00:00      21.8      1005.9      1023.9      54.0      13.5   
   13.10.2019 г. 05:30:00      21.8      1005.9      1023.8      54.1      13.6   
   13.10.2019 г. 05:00:00      21.8      1005.7      1023.7      54.1      13.3   
   13.10.2019 г. 04:30:00      21.8      1005.8      1023.8      53.8      12.5   
   13.10.2019 г. 04:00:00      21.8      1005.8      1023.8      53.9      13.9   

BaroSL graphic

TEMPE graphic